createdAt,value
2023-02-07T00:01:19.673Z,104211.25
2023-02-07T00:03:49.330Z,104213.06
2023-02-07T00:06:19.556Z,104198.00
2023-02-07T00:08:47.188Z,104203.13
2023-02-07T00:11:19.194Z,104204.75
2023-02-07T00:13:50.890Z,104194.66
2023-02-07T00:16:18.551Z,104195.53
2023-02-07T00:18:45.980Z,104187.91
2023-02-07T00:21:15.866Z,104187.97
2023-02-07T00:23:44.149Z,104184.66
2023-02-07T00:26:12.235Z,104188.94
2023-02-07T00:28:39.227Z,104183.06
2023-02-07T00:31:09.083Z,104181.44
2023-02-07T00:33:47.634Z,104176.47
2023-02-07T00:36:15.772Z,104191.66
2023-02-07T00:38:46.311Z,104187.44
2023-02-07T00:41:15.935Z,104195.03
2023-02-07T00:43:43.027Z,104195.88
2023-02-07T00:46:13.667Z,104190.81
2023-02-07T00:48:40.463Z,104190.91
2023-02-07T00:51:07.624Z,104189.22
2023-02-07T00:53:34.362Z,104201.84
2023-02-07T00:56:00.882Z,104196.81
2023-02-07T00:58:27.841Z,104196.81
2023-02-07T01:00:54.822Z,104198.53
2023-02-07T01:03:21.607Z,104206.19
2023-02-07T01:05:49.453Z,104197.72
2023-02-07T01:08:16.687Z,104201.09
2023-02-07T01:10:45.173Z,104196.03
2023-02-07T01:13:13.712Z,104195.22
2023-02-07T01:15:42.795Z,104192.78
2023-02-07T01:18:10.658Z,104186.94
2023-02-07T01:20:37.822Z,104188.59
2023-02-07T01:23:06.039Z,104198.72
2023-02-07T01:25:33.493Z,104202.09
2023-02-07T01:28:00.431Z,104198.72
2023-02-07T01:30:28.976Z,104195.38
2023-02-07T01:32:55.723Z,104202.09
2023-02-07T01:35:22.549Z,104199.59
2023-02-07T01:37:49.182Z,104186.94
2023-02-07T01:40:17.872Z,104192.94
2023-02-07T01:42:44.687Z,104203.06
2023-02-07T01:45:24.307Z,104206.50
2023-02-07T01:47:54.041Z,104206.59
2023-02-07T01:50:21.756Z,104205.84
2023-02-07T01:52:49.392Z,104212.56
2023-02-07T01:55:22.362Z,104214.25
2023-02-07T01:57:51.717Z,104211.91
2023-02-07T02:00:18.865Z,104201.06
2023-02-07T02:02:50.471Z,104201.06
2023-02-07T02:05:19.964Z,104207.75
2023-02-07T02:07:46.633Z,104214.53
2023-02-07T02:10:18.930Z,104199.44
2023-02-07T02:12:56.980Z,104200.34
2023-02-07T02:15:49.723Z,104199.50
2023-02-07T02:18:19.546Z,104199.44
2023-02-07T02:21:19.730Z,104196.97
2023-02-07T02:24:01.969Z,104200.34
2023-02-07T02:26:45.525Z,104208.78
2023-02-07T02:29:43.801Z,104205.53
2023-02-07T02:32:42.980Z,104195.66
2023-02-07T02:35:25.524Z,104196.63
2023-02-07T02:38:07.043Z,104197.44
2023-02-07T02:40:46.725Z,104206.63
2023-02-07T02:43:45.011Z,104210.75
2023-02-07T02:46:16.824Z,104203.22
2023-02-07T02:48:44.737Z,104204.97
2023-02-07T02:51:12.723Z,104194.88
2023-02-07T02:53:40.793Z,104207.50
2023-02-07T02:56:33.932Z,104199.91
2023-02-07T02:59:18.191Z,104200.75
2023-02-07T03:01:48.018Z,104203.25
2023-02-07T03:04:34.879Z,104211.69
2023-02-07T03:07:13.461Z,104210.13
2023-02-07T03:10:06.068Z,104202.59
2023-02-07T03:13:09.940Z,104197.66
2023-02-07T03:15:50.254Z,104206.00
2023-02-07T03:18:29.538Z,104201.78
2023-02-07T03:21:14.277Z,104196.75
2023-02-07T03:23:42.226Z,104195.06
2023-02-07T03:26:09.325Z,104190.88
2023-02-07T03:28:38.856Z,104194.22
2023-02-07T03:31:10.234Z,104193.41
2023-02-07T03:33:39.687Z,104191.78
2023-02-07T03:36:16.037Z,104192.72
2023-02-07T03:38:42.897Z,104195.25
2023-02-07T03:41:20.817Z,104191.94
2023-02-07T03:43:48.242Z,104173.50
2023-02-07T03:46:15.126Z,104186.88
2023-02-07T03:48:42.074Z,104199.44
2023-02-07T03:51:11.128Z,104191.13
2023-02-07T03:53:38.056Z,104185.28
2023-02-07T03:56:05.330Z,104192.00
2023-02-07T03:58:32.176Z,104186.25
2023-02-07T04:01:01.627Z,104182.19
2023-02-07T04:03:28.223Z,104184.75
2023-02-07T04:05:56.435Z,104184.75
2023-02-07T04:08:25.771Z,104174.75
2023-02-07T04:11:04.326Z,104171.44
2023-02-07T04:13:31.071Z,104178.06
2023-02-07T04:15:57.801Z,104175.41
2023-02-07T04:18:24.631Z,104172.81
2023-02-07T04:20:51.469Z,104162.66
2023-02-07T04:23:21.109Z,104169.41
2023-02-07T04:25:51.548Z,104164.41
2023-02-07T04:28:18.847Z,104175.38
2023-02-07T04:30:45.585Z,104182.13
2023-02-07T04:33:13.554Z,104175.53
2023-02-07T04:35:40.148Z,104173.94
2023-02-07T04:38:07.443Z,104171.47
2023-02-07T04:40:38.610Z,104169.78
2023-02-07T04:43:05.158Z,104171.41
2023-02-07T04:45:32.019Z,104173.03
2023-02-07T04:47:58.809Z,104169.69
2023-02-07T04:50:25.432Z,104180.59
2023-02-07T04:52:52.313Z,104172.16
2023-02-07T04:55:23.023Z,104178.84
2023-02-07T04:57:49.680Z,104175.53
2023-02-07T05:00:18.716Z,104182.22
2023-02-07T05:02:45.608Z,104175.47
2023-02-07T05:05:14.304Z,104177.13
2023-02-07T05:07:43.625Z,104171.22
2023-02-07T05:10:17.622Z,104167.91
2023-02-07T05:12:45.442Z,104172.94
2023-02-07T05:15:12.338Z,104163.66
2023-02-07T05:17:39.281Z,104173.75
2023-02-07T05:20:07.964Z,104181.28
2023-02-07T05:22:34.933Z,104180.47
2023-02-07T05:25:02.582Z,104184.66
2023-02-07T05:27:29.705Z,104185.56
2023-02-07T05:29:56.224Z,104188.03
2023-02-07T05:32:43.216Z,104186.31
2023-02-07T05:35:12.015Z,104185.44
2023-02-07T05:37:39.202Z,104200.56
2023-02-07T05:40:06.572Z,104205.59
2023-02-07T05:42:35.721Z,104207.31
2023-02-07T05:45:02.821Z,104208.13
2023-02-07T05:47:32.231Z,104208.09
2023-02-07T05:50:01.133Z,104209.72
2023-02-07T05:52:35.625Z,104218.91
2023-02-07T05:55:08.929Z,104212.22
2023-02-07T05:57:35.627Z,104206.53
2023-02-07T06:00:04.445Z,104208.19
2023-02-07T06:02:32.574Z,104214.06
2023-02-07T06:04:59.476Z,104212.44
2023-02-07T06:07:26.124Z,104209.91
2023-02-07T06:09:52.836Z,104206.56
2023-02-07T06:12:21.929Z,104210.81
2023-02-07T06:14:50.238Z,104221.78
2023-02-07T06:17:18.796Z,104219.31
2023-02-07T06:19:48.460Z,104210.84
2023-02-07T06:22:15.436Z,104213.41
2023-02-07T06:24:41.998Z,104215.94
2023-02-07T06:27:08.790Z,104217.72
2023-02-07T06:29:35.674Z,104211.03
2023-02-07T06:32:02.544Z,104206.03
2023-02-07T06:34:31.632Z,104203.50
2023-02-07T06:36:58.432Z,104206.84
2023-02-07T06:39:27.583Z,104206.91
2023-02-07T06:41:54.123Z,104207.78
2023-02-07T06:44:20.637Z,104211.97
2023-02-07T06:46:47.194Z,104217.00
2023-02-07T06:49:16.266Z,104216.22
2023-02-07T06:51:42.925Z,104217.06
2023-02-07T06:54:10.664Z,104216.25
2023-02-07T06:56:39.973Z,104222.06
2023-02-07T06:59:06.477Z,104212.00
2023-02-07T07:01:33.079Z,104223.75
2023-02-07T07:04:01.814Z,104217.00
2023-02-07T07:06:28.301Z,104224.53
2023-02-07T07:08:56.484Z,104218.66
2023-02-07T07:11:23.637Z,104217.81
2023-02-07T07:13:50.510Z,104221.97
2023-02-07T07:16:17.567Z,104226.16
2023-02-07T07:18:44.525Z,104226.13
2023-02-07T07:21:13.032Z,104232.03
2023-02-07T07:23:39.900Z,104235.38
2023-02-07T07:26:06.547Z,104233.66
2023-02-07T07:28:33.127Z,104237.88
2023-02-07T07:31:06.956Z,104240.38
2023-02-07T07:33:34.561Z,104235.28
2023-02-07T07:36:01.942Z,104236.94
2023-02-07T07:38:29.225Z,104228.53
2023-02-07T07:40:59.060Z,104221.75
2023-02-07T07:43:29.407Z,104231.78
2023-02-07T07:46:02.233Z,104230.81
2023-02-07T07:48:29.093Z,104232.41
2023-02-07T07:50:58.488Z,104213.59
2023-02-07T07:53:25.445Z,104229.19
2023-02-07T07:55:57.076Z,104216.78
2023-02-07T07:58:29.197Z,104226.84
2023-02-07T08:00:56.088Z,104225.97
2023-02-07T08:03:24.676Z,104225.88
2023-02-07T08:05:51.483Z,104229.03
2023-02-07T08:08:19.881Z,104221.28
2023-02-07T08:10:47.526Z,104222.19
2023-02-07T08:13:14.269Z,104227.28
2023-02-07T08:15:43.254Z,104210.69
2023-02-07T08:18:11.999Z,104210.88
2023-02-07T08:20:38.832Z,104215.03
2023-02-07T08:23:05.533Z,104223.81
2023-02-07T08:25:32.395Z,104223.72
2023-02-07T08:27:59.410Z,104222.59
2023-02-07T08:30:26.063Z,104227.00
2023-02-07T08:32:52.912Z,104220.16
2023-02-07T08:35:19.760Z,104223.34
2023-02-07T08:37:46.682Z,104219.50
2023-02-07T08:40:14.085Z,104215.25
2023-02-07T08:42:42.275Z,104218.47
2023-02-07T08:45:11.710Z,104213.63
2023-02-07T08:47:39.820Z,104210.09
2023-02-07T08:50:07.524Z,104213.16
2023-02-07T08:52:35.359Z,104221.66
2023-02-07T08:55:02.173Z,104224.59
2023-02-07T08:57:28.993Z,104225.25
2023-02-07T08:59:55.913Z,104219.31
2023-02-07T09:02:22.903Z,104223.16
2023-02-07T09:04:52.449Z,104226.81
2023-02-07T09:07:39.491Z,104235.13
2023-02-07T09:10:09.163Z,104227.34
2023-02-07T09:12:37.901Z,104230.91
2023-02-07T09:15:06.373Z,104228.25
2023-02-07T09:17:33.111Z,104237.09
2023-02-07T09:19:59.767Z,104243.53
2023-02-07T09:22:26.499Z,104230.75
2023-02-07T09:24:54.285Z,104224.88
2023-02-07T09:27:21.119Z,104215.69
2023-02-07T09:29:49.522Z,104210.34
2023-02-07T09:32:16.452Z,104215.16
2023-02-07T09:34:43.251Z,104215.47
2023-02-07T09:37:09.786Z,104219.25
2023-02-07T09:39:38.576Z,104220.19
2023-02-07T09:42:30.009Z,104219.22
2023-02-07T09:45:09.670Z,104210.38
2023-02-07T09:47:43.492Z,104217.44
2023-02-07T09:50:15.150Z,104217.78
2023-02-07T09:52:47.703Z,104217.00
2023-02-07T09:55:26.419Z,104219.03
2023-02-07T09:57:59.200Z,104220.03
2023-02-07T10:00:33.124Z,104217.44
2023-02-07T10:03:15.458Z,104219.16
2023-02-07T10:06:01.473Z,104211.53
2023-02-07T10:08:39.759Z,104223.69
2023-02-07T10:11:12.939Z,104224.03
2023-02-07T10:14:07.346Z,104228.41
2023-02-07T10:16:58.513Z,104235.75
2023-02-07T10:19:43.737Z,104245.19
2023-02-07T10:22:13.537Z,104235.69
2023-02-07T10:25:02.397Z,104244.94
2023-02-07T10:27:47.492Z,104241.59
2023-02-07T10:30:28.273Z,104243.81
2023-02-07T10:33:01.891Z,104251.50
2023-02-07T10:35:39.900Z,104246.59
2023-02-07T10:38:21.251Z,104249.91
2023-02-07T10:41:06.458Z,104253.97
2023-02-07T10:43:34.939Z,104253.47
2023-02-07T10:46:09.725Z,104253.81
2023-02-07T10:48:38.249Z,104252.91
2023-02-07T10:51:26.427Z,104259.47
2023-02-07T10:54:04.615Z,104249.94
2023-02-07T10:56:33.682Z,104249.66
2023-02-07T10:59:00.825Z,104251.03
2023-02-07T11:01:31.158Z,104250.91
2023-02-07T11:03:58.697Z,104260.50
2023-02-07T11:06:36.964Z,104249.94
2023-02-07T11:09:11.136Z,104244.72
2023-02-07T11:11:48.213Z,104241.06
2023-02-07T11:14:18.665Z,104237.19
2023-02-07T11:16:45.890Z,104243.38
2023-02-07T11:19:20.542Z,104249.44
2023-02-07T11:21:51.879Z,104239.94
2023-02-07T11:24:27.553Z,104241.22
2023-02-07T11:27:03.244Z,104235.91
2023-02-07T11:29:34.269Z,104234.94
2023-02-07T11:32:02.876Z,104235.97
2023-02-07T11:34:54.811Z,104225.22
2023-02-07T11:37:39.778Z,104230.75
2023-02-07T11:40:29.917Z,104229.06
2023-02-07T11:43:17.050Z,104223.44
2023-02-07T11:45:48.339Z,104221.75
2023-02-07T11:48:19.316Z,104216.84
2023-02-07T11:50:52.989Z,104219.09
2023-02-07T11:53:33.139Z,104206.59
2023-02-07T11:56:00.054Z,104212.19
2023-02-07T11:58:49.283Z,104206.34
2023-02-07T12:01:20.792Z,104200.03
2023-02-07T12:03:55.591Z,104205.41
2023-02-07T12:06:31.671Z,104199.81
2023-02-07T12:09:00.129Z,104195.75
2023-02-07T12:11:37.734Z,104199.63
2023-02-07T12:14:23.419Z,104192.16
2023-02-07T12:16:55.510Z,104188.38
2023-02-07T12:19:33.482Z,104192.22
2023-02-07T12:22:21.166Z,104195.41
2023-02-07T12:25:03.189Z,104187.09
2023-02-07T12:27:39.561Z,104195.09
2023-02-07T12:30:47.010Z,104194.34
2023-02-07T12:33:20.298Z,104196.25
2023-02-07T12:35:58.303Z,104194.53
2023-02-07T12:38:29.048Z,104198.81
2023-02-07T12:41:03.333Z,104197.34
2023-02-07T12:43:38.669Z,104191.38
2023-02-07T12:46:14.574Z,104194.84
2023-02-07T12:49:02.317Z,104193.59
2023-02-07T12:52:04.535Z,104189.81
2023-02-07T12:54:57.120Z,104190.19
2023-02-07T12:58:02.487Z,104189.00
2023-02-07T13:00:50.826Z,104189.13
2023-02-07T13:03:26.481Z,104184.88
2023-02-07T13:05:54.593Z,104184.84
2023-02-07T13:08:43.843Z,104178.78
2023-02-07T13:11:58.402Z,104175.50
2023-02-07T13:14:43.761Z,104163.09
2023-02-07T13:17:25.911Z,104170.00
2023-02-07T13:20:31.618Z,104173.56
2023-02-07T13:23:01.278Z,104163.06
2023-02-07T13:25:34.732Z,104160.63
2023-02-07T13:28:08.382Z,104163.41
2023-02-07T13:30:36.915Z,104162.75
2023-02-07T13:33:26.104Z,104163.06
2023-02-07T13:35:54.461Z,104158.28
2023-02-07T13:38:24.133Z,104158.22
2023-02-07T13:41:19.696Z,104158.91
2023-02-07T13:43:50.880Z,104156.09
2023-02-07T13:46:38.806Z,104152.06
2023-02-07T13:49:20.819Z,104155.13
2023-02-07T13:52:11.948Z,104149.81
2023-02-07T13:55:11.383Z,104151.25
2023-02-07T13:58:02.166Z,104154.09
2023-02-07T14:00:32.117Z,104145.81
2023-02-07T14:03:04.776Z,104147.00
2023-02-07T14:05:40.197Z,104150.16
2023-02-07T14:08:25.830Z,104149.13
2023-02-07T14:10:58.649Z,104151.53
2023-02-07T14:13:27.859Z,104147.38
2023-02-07T14:15:54.704Z,104147.38
2023-02-07T14:18:40.819Z,104164.06
2023-02-07T14:21:22.336Z,104153.91
2023-02-07T14:24:05.942Z,104144.78
2023-02-07T14:26:38.328Z,104151.03
2023-02-07T14:29:23.056Z,104147.94
2023-02-07T14:32:20.565Z,104143.81
2023-02-07T14:35:07.041Z,104137.94
2023-02-07T14:37:53.703Z,104150.97
2023-02-07T14:40:31.607Z,104150.44
2023-02-07T14:43:02.914Z,104146.59
2023-02-07T14:45:36.154Z,104150.59
2023-02-07T14:48:07.957Z,104150.19
2023-02-07T14:50:35.880Z,104142.38
2023-02-07T14:53:06.050Z,104137.78
2023-02-07T14:55:51.524Z,104138.75
2023-02-07T14:58:54.366Z,104142.47
2023-02-07T15:01:21.457Z,104138.63
2023-02-07T15:04:02.657Z,104147.53
2023-02-07T15:06:32.727Z,104147.19
2023-02-07T15:09:01.083Z,104146.69
2023-02-07T15:11:30.153Z,104147.03
2023-02-07T15:13:59.751Z,104147.44
2023-02-07T15:16:29.712Z,104139.41
2023-02-07T15:19:03.184Z,104136.38
2023-02-07T15:21:42.055Z,104141.69
2023-02-07T15:24:52.018Z,104137.75
2023-02-07T15:27:22.568Z,104132.16
2023-02-07T15:29:59.970Z,104140.06
2023-02-07T15:32:41.425Z,104137.88
2023-02-07T15:35:18.284Z,104132.13
2023-02-07T15:37:49.458Z,104130.56
2023-02-07T15:40:22.596Z,104145.31
2023-02-07T15:42:56.766Z,104139.66
2023-02-07T15:45:32.023Z,104135.66
2023-02-07T15:48:07.163Z,104138.47
2023-02-07T15:50:34.422Z,104137.00
2023-02-07T15:53:04.420Z,104132.97
2023-02-07T15:55:51.861Z,104139.22
2023-02-07T15:58:29.309Z,104132.78
2023-02-07T16:01:04.373Z,104135.66
2023-02-07T16:03:37.739Z,104147.88
2023-02-07T16:06:28.408Z,104136.28
2023-02-07T16:08:57.958Z,104134.84
2023-02-07T16:11:28.217Z,104137.56
2023-02-07T16:14:13.176Z,104131.00
2023-02-07T16:16:47.885Z,104136.38
2023-02-07T16:19:19.476Z,104135.00
2023-02-07T16:22:09.341Z,104136.25
2023-02-07T16:24:38.958Z,104134.03
2023-02-07T16:27:06.458Z,104137.69
2023-02-07T16:29:37.438Z,104139.59
2023-02-07T16:32:05.778Z,104142.50
2023-02-07T16:34:32.242Z,104141.84
2023-02-07T16:36:59.002Z,104146.25
2023-02-07T16:39:25.710Z,104144.00
2023-02-07T16:41:56.546Z,104151.25
2023-02-07T16:44:25.168Z,104147.34
2023-02-07T16:46:52.388Z,104149.28
2023-02-07T16:49:24.646Z,104153.81
2023-02-07T16:51:52.079Z,104162.53
2023-02-07T16:54:19.828Z,104152.00
2023-02-07T16:56:51.247Z,104148.38
2023-02-07T16:59:21.549Z,104149.47
2023-02-07T17:04:18.228Z,104147.50
2023-02-07T17:06:47.574Z,104157.03
2023-02-07T17:09:20.412Z,104155.75
2023-02-07T17:11:49.068Z,104156.03
2023-02-07T17:14:16.326Z,104151.16
2023-02-07T17:16:42.986Z,104156.34
2023-02-07T17:19:18.663Z,104150.50
2023-02-07T17:21:49.463Z,104154.81
2023-02-07T17:24:17.297Z,104153.91
2023-02-07T17:26:51.192Z,104153.94
2023-02-07T17:29:18.806Z,104145.78
2023-02-07T17:31:49.434Z,104145.91
2023-02-07T17:34:16.937Z,104160.41
2023-02-07T17:36:51.032Z,104153.09
2023-02-07T17:39:20.161Z,104158.22
2023-02-07T17:41:47.261Z,104157.50
2023-02-07T17:44:17.005Z,104156.97
2023-02-07T17:46:44.140Z,104153.91
2023-02-07T17:49:16.447Z,104154.91
2023-02-07T17:51:43.400Z,104166.94
2023-02-07T17:54:10.812Z,104170.47
2023-02-07T17:56:37.381Z,104170.50
2023-02-07T17:59:06.150Z,104171.41
2023-02-07T18:01:33.852Z,104174.19
2023-02-07T18:04:03.102Z,104173.59
2023-02-07T18:06:30.608Z,104170.28
2023-02-07T18:09:00.833Z,104184.69
2023-02-07T18:11:28.272Z,104185.66
2023-02-07T18:13:57.383Z,104180.59
2023-02-07T18:16:26.164Z,104187.47
2023-02-07T18:18:55.355Z,104185.91
2023-02-07T18:21:22.348Z,104191.06
2023-02-07T18:23:52.666Z,104187.81
2023-02-07T18:26:23.388Z,104183.47
2023-02-07T18:28:50.613Z,104187.59
2023-02-07T18:31:21.293Z,104191.75
2023-02-07T18:33:48.510Z,104185.81
2023-02-07T18:36:17.340Z,104187.50
2023-02-07T18:38:44.663Z,104187.59
2023-02-07T18:41:16.384Z,104192.00
2023-02-07T18:43:43.571Z,104187.91
2023-02-07T18:46:16.849Z,104188.94
2023-02-07T18:48:45.299Z,104192.38
2023-02-07T18:51:14.375Z,104193.28
2023-02-07T18:54:25.862Z,104189.94
2023-02-07T18:56:53.589Z,104174.72
2023-02-07T18:59:21.936Z,104181.50
2023-02-07T19:01:50.664Z,104177.41
2023-02-07T19:04:18.317Z,104178.31
2023-02-07T19:06:50.730Z,104180.06
2023-02-07T19:09:19.304Z,104171.75
2023-02-07T19:11:45.857Z,104166.81
2023-02-07T19:14:16.474Z,104170.28
2023-02-07T19:16:46.408Z,104167.84
2023-02-07T19:19:14.619Z,104157.78
2023-02-07T19:21:43.840Z,104170.47
2023-02-07T19:24:16.181Z,104173.03
2023-02-07T19:26:45.496Z,104159.72
2023-02-07T19:29:17.765Z,104164.88
2023-02-07T19:31:45.071Z,104162.28
2023-02-07T19:34:13.068Z,104162.28
2023-02-07T19:36:41.038Z,104164.81
2023-02-07T19:39:11.913Z,104165.72
2023-02-07T19:41:40.857Z,104159.91
2023-02-07T19:44:07.808Z,104156.59
2023-02-07T19:46:36.794Z,104153.09
2023-02-07T19:49:05.102Z,104152.16
2023-02-07T19:51:34.841Z,104157.13
2023-02-07T19:54:02.173Z,104146.13
2023-02-07T19:56:34.489Z,104151.19
2023-02-07T19:59:04.121Z,104160.47
2023-02-07T20:01:38.170Z,104156.16
2023-02-07T20:04:06.034Z,104145.94
2023-02-07T20:06:34.582Z,104153.63
2023-02-07T20:09:02.605Z,104154.53
2023-02-07T20:11:29.703Z,104154.72
2023-02-07T20:14:03.680Z,104152.31
2023-02-07T20:16:36.616Z,104152.31
2023-02-07T20:19:06.565Z,104143.94
2023-02-07T20:21:36.204Z,104144.00
2023-02-07T20:24:04.063Z,104145.91
2023-02-07T20:26:38.080Z,104137.59
2023-02-07T20:29:11.578Z,104139.38
2023-02-07T20:31:39.107Z,104141.06
2023-02-07T20:34:08.525Z,104149.59
2023-02-07T20:36:41.378Z,104155.72
2023-02-07T20:39:22.290Z,104155.03
2023-02-07T20:41:50.080Z,104156.09
2023-02-07T20:44:20.723Z,104145.41
2023-02-07T20:46:49.367Z,104147.16
2023-02-07T20:49:21.189Z,104148.78
2023-02-07T20:51:49.879Z,104143.81
2023-02-07T20:54:18.022Z,104153.16
2023-02-07T20:56:47.465Z,104149.00
2023-02-07T20:59:20.463Z,104145.56
2023-02-07T21:01:47.164Z,104142.03
2023-02-07T21:04:16.637Z,104141.97
2023-02-07T21:06:45.093Z,104137.69
2023-02-07T21:09:13.248Z,104143.50
2023-02-07T21:11:43.227Z,104140.91
2023-02-07T21:14:19.339Z,104141.78
2023-02-07T21:16:46.494Z,104138.47
2023-02-07T21:19:13.197Z,104141.13
2023-02-07T21:21:39.818Z,104144.56
2023-02-07T21:24:09.779Z,104147.97
2023-02-07T21:26:36.406Z,104152.19
2023-02-07T21:29:05.080Z,104145.56
2023-02-07T21:31:35.916Z,104141.38
2023-02-07T21:34:04.034Z,104138.91
2023-02-07T21:36:33.613Z,104135.53
2023-02-07T21:39:06.968Z,104138.00
2023-02-07T21:41:34.090Z,104134.59
2023-02-07T21:44:01.116Z,104136.22
2023-02-07T21:46:31.734Z,104133.72
2023-02-07T21:49:04.526Z,104132.00
2023-02-07T21:51:33.485Z,104139.63
2023-02-07T21:54:01.853Z,104132.13
2023-02-07T21:56:33.424Z,104128.75
2023-02-07T21:59:02.994Z,104125.50
2023-02-07T22:01:33.025Z,104126.50
2023-02-07T22:04:01.844Z,104130.75
2023-02-07T22:06:29.984Z,104126.59
2023-02-07T22:09:01.375Z,104133.28
2023-02-07T22:11:32.855Z,104128.25
2023-02-07T22:14:00.630Z,104125.78
2023-02-07T22:16:31.330Z,104139.28
2023-02-07T22:18:59.550Z,104131.78
2023-02-07T22:21:31.632Z,104130.13
2023-02-07T22:24:04.282Z,104134.31
2023-02-07T22:26:33.162Z,104137.69
2023-02-07T22:29:00.022Z,104136.88
2023-02-07T22:31:29.353Z,104143.63
2023-02-07T22:33:59.767Z,104137.75
2023-02-07T22:36:28.954Z,104143.69
2023-02-07T22:42:38.705Z,104139.53
2023-02-07T22:45:05.372Z,104133.69
2023-02-07T22:47:31.859Z,104128.69
2023-02-07T22:49:58.383Z,104118.63
2023-02-07T22:52:25.485Z,104122.03
2023-02-07T22:54:52.293Z,104120.34
2023-02-07T22:57:19.143Z,104124.56
2023-02-07T22:59:45.653Z,104122.06
2023-02-07T23:02:12.561Z,104119.63
2023-02-07T23:04:40.686Z,104114.56
2023-02-07T23:07:07.519Z,104118.84
2023-02-07T23:09:34.347Z,104120.56
2023-02-07T23:12:02.539Z,104113.00
2023-02-07T23:14:29.052Z,104116.34
2023-02-07T23:16:55.480Z,104113.06
2023-02-07T23:19:22.008Z,104123.16
2023-02-07T23:21:51.780Z,104121.47
2023-02-07T23:24:21.213Z,104120.69
2023-02-07T23:26:51.419Z,104120.78
2023-02-07T23:29:21.123Z,104125.00
2023-02-07T23:31:50.505Z,104115.84
2023-02-07T23:34:17.257Z,104130.03
2023-02-07T23:36:47.381Z,104121.59
2023-02-07T23:39:14.379Z,104131.56
2023-02-07T23:41:43.739Z,104130.75
2023-02-07T23:44:10.603Z,104129.06
2023-02-07T23:46:37.563Z,104136.69
2023-02-07T23:49:05.595Z,104130.00
2023-02-07T23:51:33.966Z,104124.09
2023-02-07T23:54:03.193Z,104128.34
2023-02-07T23:56:30.213Z,104121.69
2023-02-07T23:58:58.323Z,104137.63
